createdAt,value
2017-01-15T00:00:33.560Z,994.67
2017-01-15T00:01:43.935Z,994.71
2017-01-15T00:02:54.317Z,994.76
2017-01-15T00:04:05.109Z,994.75
2017-01-15T00:05:15.471Z,994.75
2017-01-15T00:06:26.237Z,994.77
2017-01-15T00:07:36.608Z,994.79
2017-01-15T00:08:47.367Z,994.8
2017-01-15T00:09:57.722Z,994.79
2017-01-15T00:11:07.759Z,994.83
2017-01-15T00:12:18.105Z,994.84
2017-01-15T00:13:28.469Z,994.84
2017-01-15T00:14:39.219Z,994.83
2017-01-15T00:15:49.998Z,994.82
2017-01-15T00:17:00.765Z,994.82
2017-01-15T00:18:11.144Z,994.86
2017-01-15T00:19:21.912Z,994.95
2017-01-15T00:20:31.857Z,994.87
2017-01-15T00:21:42.210Z,994.9
2017-01-15T00:22:52.968Z,994.93
2017-01-15T00:24:03.717Z,994.93
2017-01-15T00:25:14.470Z,994.96
2017-01-15T00:26:24.826Z,994.94
2017-01-15T00:27:35.571Z,995.03
2017-01-15T00:28:45.928Z,994.99
2017-01-15T00:29:56.277Z,994.97
2017-01-15T00:31:07.033Z,995
2017-01-15T00:32:17.791Z,994.97
2017-01-15T00:33:27.736Z,994.95
2017-01-15T00:34:38.083Z,995.02
2017-01-15T00:35:48.834Z,995.02
2017-01-15T00:36:59.187Z,995.05
2017-01-15T00:38:09.967Z,995.08
2017-01-15T00:39:20.715Z,995.12
2017-01-15T00:40:31.454Z,995.07
2017-01-15T00:41:42.217Z,995.11
2017-01-15T00:42:52.575Z,995.12
2017-01-15T00:44:02.957Z,995.22
2017-01-15T00:45:13.313Z,995.21
2017-01-15T00:46:23.650Z,995.2
2017-01-15T00:47:33.991Z,995.23
2017-01-15T00:48:44.752Z,995.22
2017-01-15T00:49:55.105Z,995.27
2017-01-15T00:51:05.471Z,995.23
2017-01-15T00:52:16.248Z,995.26
2017-01-15T00:53:26.604Z,995.27
2017-01-15T00:54:36.964Z,995.3
2017-01-15T00:55:47.311Z,995.29
2017-01-15T00:56:58.043Z,995.3
2017-01-15T00:58:08.812Z,995.32
2017-01-15T00:59:19.174Z,995.34
2017-01-15T01:00:29.540Z,995.35
2017-01-15T01:01:40.301Z,995.32
2017-01-15T01:02:50.656Z,995.39
2017-01-15T01:04:01.403Z,995.4
2017-01-15T01:05:11.776Z,995.4
2017-01-15T01:06:22.519Z,995.41
2017-01-15T01:07:32.880Z,995.46
2017-01-15T01:08:43.296Z,995.45
2017-01-15T01:09:53.651Z,995.46
2017-01-15T01:11:04.047Z,995.44
2017-01-15T01:12:14.800Z,995.48
2017-01-15T01:13:25.147Z,995.54
2017-01-15T01:14:35.878Z,995.55
2017-01-15T01:15:45.871Z,995.5
2017-01-15T01:16:56.613Z,995.51
2017-01-15T01:18:07.357Z,995.52
2017-01-15T01:19:17.720Z,995.52
2017-01-15T01:20:28.066Z,995.53
2017-01-15T01:21:38.801Z,995.51
2017-01-15T01:22:49.141Z,995.51
2017-01-15T01:23:59.117Z,995.52
2017-01-15T01:25:09.455Z,995.53
2017-01-15T01:26:19.890Z,995.54
2017-01-15T01:27:30.226Z,995.51
2017-01-15T01:28:40.174Z,995.53
2017-01-15T01:29:50.515Z,995.57
2017-01-15T01:31:00.464Z,995.64
2017-01-15T01:32:10.831Z,995.56
2017-01-15T01:33:20.796Z,995.62
2017-01-15T01:34:31.158Z,995.62
2017-01-15T01:35:41.901Z,995.62
2017-01-15T01:36:52.255Z,995.61
2017-01-15T01:38:03.019Z,995.63
2017-01-15T01:39:12.994Z,995.67
2017-01-15T01:40:23.338Z,995.67
2017-01-15T01:41:33.669Z,995.67
2017-01-15T01:42:44.015Z,995.67
2017-01-15T01:43:53.971Z,995.68
2017-01-15T01:45:04.382Z,995.73
2017-01-15T01:46:14.730Z,995.76
2017-01-15T01:47:25.482Z,995.7
2017-01-15T01:48:35.830Z,995.67
2017-01-15T01:49:46.171Z,995.65
2017-01-15T01:50:56.929Z,995.68
2017-01-15T01:52:07.673Z,995.75
2017-01-15T01:53:18.400Z,995.74
2017-01-15T01:54:28.773Z,995.76
2017-01-15T01:55:39.114Z,995.77
2017-01-15T01:56:49.454Z,995.7
2017-01-15T01:58:00.218Z,995.72
2017-01-15T01:59:10.564Z,995.76
2017-01-15T02:00:20.936Z,995.73
2017-01-15T02:01:30.893Z,995.7
2017-01-15T02:02:41.625Z,995.75
2017-01-15T02:03:51.977Z,995.71
2017-01-15T02:05:02.333Z,995.74
2017-01-15T02:06:13.099Z,995.73
2017-01-15T02:07:23.447Z,995.81
2017-01-15T02:08:33.802Z,995.75
2017-01-15T02:09:44.157Z,995.76
2017-01-15T02:10:54.099Z,995.78
2017-01-15T02:12:04.454Z,995.76
2017-01-15T02:13:15.192Z,995.77
2017-01-15T02:14:25.529Z,995.79
2017-01-15T02:15:35.882Z,995.8
2017-01-15T02:16:46.636Z,995.79
2017-01-15T02:17:56.993Z,995.76
2017-01-15T02:19:07.366Z,995.74
2017-01-15T02:20:16.923Z,995.71
2017-01-15T02:21:27.264Z,995.8
2017-01-15T02:22:37.683Z,995.78
2017-01-15T02:23:48.420Z,995.81
2017-01-15T02:24:59.165Z,995.8
2017-01-15T02:26:08.732Z,995.79
2017-01-15T02:27:19.063Z,995.78
2017-01-15T02:28:29.410Z,995.78
2017-01-15T02:29:40.152Z,995.77
2017-01-15T02:30:50.895Z,995.79
2017-01-15T02:32:01.250Z,995.76
2017-01-15T02:33:11.633Z,995.76
2017-01-15T02:34:22.370Z,995.73
2017-01-15T02:35:31.917Z,995.82
2017-01-15T02:36:42.690Z,995.78
2017-01-15T02:37:53.425Z,995.82
2017-01-15T02:39:03.800Z,995.77
2017-01-15T02:40:14.149Z,995.77
2017-01-15T02:41:24.507Z,995.78
2017-01-15T02:42:34.862Z,995.77
2017-01-15T02:43:45.608Z,995.7
2017-01-15T02:44:56.351Z,995.74
2017-01-15T02:46:07.087Z,995.72
2017-01-15T02:47:17.456Z,995.75
2017-01-15T02:48:28.186Z,995.71
2017-01-15T02:49:38.538Z,995.74
2017-01-15T02:50:48.500Z,995.74
2017-01-15T02:51:58.917Z,995.74
2017-01-15T02:53:09.458Z,995.77
2017-01-15T02:54:20.401Z,995.73
2017-01-15T02:55:31.117Z,995.69
2017-01-15T02:56:41.867Z,995.71
2017-01-15T02:57:52.208Z,995.76
2017-01-15T02:59:02.548Z,995.77
2017-01-15T03:00:12.894Z,995.79
2017-01-15T03:01:23.632Z,995.77
2017-01-15T03:33:17.510Z,995.85
2017-01-15T03:34:27.458Z,995.85
2017-01-15T03:35:37.790Z,995.87
2017-01-15T03:36:48.546Z,995.79
2017-01-15T03:37:59.282Z,995.87
2017-01-15T03:39:09.633Z,995.85
2017-01-15T03:40:20.380Z,995.88
2017-01-15T03:41:31.123Z,995.83
2017-01-15T03:42:41.464Z,995.87
2017-01-15T03:43:52.462Z,995.85
2017-01-15T03:45:02.437Z,995.86
2017-01-15T03:46:12.781Z,995.89
2017-01-15T03:47:23.546Z,995.89
2017-01-15T03:48:33.893Z,995.9
2017-01-15T03:49:44.240Z,995.98
2017-01-15T03:50:54.585Z,995.94
2017-01-15T03:52:04.540Z,995.92
2017-01-15T03:53:15.274Z,995.93
2017-01-15T03:54:26.010Z,995.85
2017-01-15T03:55:36.748Z,995.91
2017-01-15T03:56:47.095Z,995.9
2017-01-15T03:57:57.833Z,995.93
2017-01-15T03:59:08.179Z,995.9
2017-01-15T04:00:18.924Z,996.03
2017-01-15T04:01:29.260Z,995.89
2017-01-15T04:02:39.219Z,996.01
2017-01-15T04:03:49.576Z,995.94
2017-01-15T04:05:00.320Z,995.94
2017-01-15T04:06:10.673Z,995.94
2017-01-15T04:07:21.409Z,995.99
2017-01-15T04:08:30.964Z,995.93
2017-01-15T04:09:41.704Z,995.99
2017-01-15T04:10:52.440Z,995.95
2017-01-15T04:12:03.186Z,996.05
2017-01-15T04:13:13.933Z,996.03
2017-01-15T04:14:24.675Z,996
2017-01-15T04:15:35.431Z,996.04
2017-01-15T04:16:44.994Z,996.09
2017-01-15T04:17:55.740Z,996.06
2017-01-15T04:19:06.478Z,996.12
2017-01-15T04:20:16.833Z,996.11
2017-01-15T04:21:26.790Z,996.11
2017-01-15T04:22:37.124Z,996.12
2017-01-15T04:23:47.901Z,996.06
2017-01-15T04:24:58.257Z,996.17
2017-01-15T04:26:08.613Z,996.16
2017-01-15T04:27:19.344Z,996.19
2017-01-15T04:28:30.105Z,996.25
2017-01-15T04:29:40.459Z,996.25
2017-01-15T04:30:50.409Z,996.24
2017-01-15T04:32:00.765Z,996.23
2017-01-15T04:33:11.501Z,996.21
2017-01-15T04:34:22.234Z,996.15
2017-01-15T04:35:32.193Z,996.21
2017-01-15T04:36:42.549Z,996.26
2017-01-15T04:37:53.293Z,996.26
2017-01-15T04:39:03.655Z,996.26
2017-01-15T04:40:13.602Z,996.29
2017-01-15T04:41:24.361Z,996.29
2017-01-15T04:42:35.107Z,996.31
2017-01-15T04:43:45.852Z,996.36
2017-01-15T04:44:55.810Z,996.35
2017-01-15T04:46:06.168Z,996.37
2017-01-15T04:47:16.138Z,996.4
2017-01-15T04:48:26.901Z,996.43
2017-01-15T04:49:37.267Z,996.39
2017-01-15T04:50:47.622Z,996.41
2017-01-15T04:51:57.980Z,996.43
2017-01-15T04:53:07.936Z,996.36
2017-01-15T04:54:18.269Z,996.39
2017-01-15T04:55:28.620Z,996.42
2017-01-15T04:56:39.361Z,996.43
2017-01-15T04:57:50.088Z,996.37
2017-01-15T04:59:00.441Z,996.33
2017-01-15T05:00:11.165Z,996.3
2017-01-15T05:01:20.720Z,996.33
2017-01-15T05:02:31.441Z,996.32
2017-01-15T05:03:42.186Z,996.36
2017-01-15T05:04:52.941Z,996.39
2017-01-15T05:06:03.695Z,996.34
2017-01-15T05:07:14.048Z,996.36
2017-01-15T05:08:24.382Z,996.37
2017-01-15T05:09:33.930Z,996.37
2017-01-15T05:10:44.276Z,996.39
2017-01-15T05:11:54.626Z,996.46
2017-01-15T05:13:04.605Z,996.4
2017-01-15T05:14:15.354Z,996.43
2017-01-15T05:15:25.314Z,996.53
2017-01-15T05:16:35.260Z,996.48
2017-01-15T05:17:45.993Z,996.48
2017-01-15T05:18:56.738Z,996.56
2017-01-15T05:20:07.091Z,996.49
2017-01-15T05:21:17.467Z,996.53
2017-01-15T05:22:28.204Z,996.53
2017-01-15T05:23:38.560Z,996.52
2017-01-15T05:24:48.906Z,996.61
2017-01-15T05:25:58.089Z,996.6
2017-01-15T05:27:08.831Z,996.54
2017-01-15T05:28:19.201Z,996.58
2017-01-15T05:29:29.943Z,996.62
2017-01-15T05:30:40.286Z,996.65
2017-01-15T05:31:50.241Z,996.72
2017-01-15T05:33:00.989Z,996.67
2017-01-15T05:34:10.949Z,996.67
2017-01-15T05:35:21.713Z,996.69
2017-01-15T05:36:32.068Z,996.71
2017-01-15T05:37:42.415Z,996.7
2017-01-15T05:38:53.162Z,996.72
2017-01-15T05:40:03.908Z,996.68
2017-01-15T05:41:14.651Z,996.72
2017-01-15T05:42:25.393Z,996.76
2017-01-15T05:43:36.139Z,996.76
2017-01-15T05:44:46.079Z,996.77
2017-01-15T05:45:56.423Z,996.7
2017-01-15T05:47:06.763Z,996.77
2017-01-15T05:48:17.152Z,996.78
2017-01-15T05:49:27.890Z,996.81
2017-01-15T05:50:38.223Z,996.78
2017-01-15T05:51:48.171Z,996.85
2017-01-15T05:52:58.512Z,996.8
2017-01-15T05:54:08.467Z,996.81
2017-01-15T05:55:18.854Z,996.79
2017-01-15T05:56:29.590Z,996.87
2017-01-15T05:57:39.934Z,996.85
2017-01-15T05:58:50.281Z,996.86
2017-01-15T06:00:01.002Z,996.91
2017-01-15T06:01:11.362Z,996.88
2017-01-15T06:02:22.114Z,996.87
2017-01-15T06:03:32.472Z,996.91
2017-01-15T06:04:42.818Z,996.84
2017-01-15T06:05:53.149Z,996.91
2017-01-15T06:07:03.501Z,996.88
2017-01-15T06:08:13.854Z,996.87
2017-01-15T06:09:24.591Z,996.89
2017-01-15T06:10:35.322Z,996.94
2017-01-15T06:11:45.660Z,996.91
2017-01-15T06:12:56.399Z,996.93
2017-01-15T06:14:06.756Z,996.92
2017-01-15T06:15:17.104Z,997
2017-01-15T06:16:27.857Z,997.04
2017-01-15T06:17:38.219Z,997.05
2017-01-15T06:18:48.159Z,997.14
2017-01-15T06:19:58.906Z,997.17
2017-01-15T06:21:09.642Z,997.14
2017-01-15T06:22:19.988Z,997.15
2017-01-15T06:23:30.722Z,997.16
2017-01-15T06:24:41.061Z,997.18
2017-01-15T06:25:51.819Z,997.24
2017-01-15T06:27:02.571Z,997.26
2017-01-15T06:28:12.937Z,997.25
2017-01-15T06:29:23.685Z,997.28
2017-01-15T06:30:34.445Z,997.22
2017-01-15T06:31:45.196Z,997.35
2017-01-15T06:32:55.940Z,997.33
2017-01-15T06:34:06.280Z,997.37
2017-01-15T06:35:17.031Z,997.33
2017-01-15T06:36:27.369Z,997.34
2017-01-15T06:37:38.115Z,997.32
2017-01-15T06:38:48.468Z,997.35
2017-01-15T06:39:59.218Z,997.39
2017-01-15T06:41:09.965Z,997.38
2017-01-15T06:42:19.518Z,997.42
2017-01-15T06:43:30.256Z,997.38
2017-01-15T06:44:40.611Z,997.43
2017-01-15T06:45:50.962Z,997.45
2017-01-15T06:47:01.346Z,997.44
2017-01-15T06:48:12.092Z,997.44
2017-01-15T06:49:22.820Z,997.51
2017-01-15T06:50:33.156Z,997.48
2017-01-15T06:51:43.504Z,997.45
2017-01-15T06:52:53.844Z,997.56
2017-01-15T06:54:04.606Z,997.52
2017-01-15T06:55:14.565Z,997.57
2017-01-15T06:56:24.929Z,997.61
2017-01-15T06:57:35.668Z,997.59
2017-01-15T06:58:46.418Z,997.63
2017-01-15T06:59:56.778Z,997.63
2017-01-15T07:01:07.133Z,997.6
2017-01-15T07:02:17.478Z,997.6
2017-01-15T07:03:28.209Z,997.62
2017-01-15T07:04:38.948Z,997.65
2017-01-15T07:05:49.311Z,997.66
2017-01-15T07:06:59.890Z,997.66
2017-01-15T07:08:10.623Z,997.68
2017-01-15T07:09:21.357Z,997.61
2017-01-15T07:10:32.140Z,997.62
2017-01-15T07:11:41.697Z,997.67
2017-01-15T07:12:52.432Z,997.72
2017-01-15T07:14:02.789Z,997.74
2017-01-15T07:15:13.538Z,997.76
2017-01-15T07:16:24.299Z,997.75
2017-01-15T07:17:35.064Z,997.8
2017-01-15T07:18:45.422Z,997.76
2017-01-15T07:19:56.168Z,997.86
2017-01-15T07:21:06.914Z,997.86
2017-01-15T07:22:16.857Z,997.89
2017-01-15T07:23:27.203Z,997.92
2017-01-15T07:24:37.941Z,997.9
2017-01-15T07:25:48.287Z,997.9
2017-01-15T07:26:59.042Z,997.97
2017-01-15T07:28:09.795Z,998
2017-01-15T07:29:20.138Z,998.02
2017-01-15T07:30:30.885Z,998.03
2017-01-15T07:31:41.232Z,998.03
2017-01-15T07:32:51.997Z,998.07
2017-01-15T07:34:01.963Z,997.98
2017-01-15T07:35:12.716Z,998.13
2017-01-15T07:36:23.452Z,998.08
2017-01-15T07:37:34.204Z,998.12
2017-01-15T07:38:44.547Z,998.15
2017-01-15T07:39:55.288Z,998.17
2017-01-15T07:41:05.639Z,998.2
2017-01-15T07:42:15.984Z,998.2
2017-01-15T07:43:26.335Z,998.21
2017-01-15T07:44:37.090Z,998.22
2017-01-15T07:45:47.831Z,998.22
2017-01-15T07:46:57.798Z,998.39
2017-01-15T07:48:08.160Z,998.27
2017-01-15T07:49:18.531Z,998.33
2017-01-15T07:50:28.097Z,998.3
2017-01-15T07:51:38.444Z,998.39
2017-01-15T07:52:48.802Z,998.4
2017-01-15T07:53:58.373Z,998.32
2017-01-15T07:55:08.319Z,998.33
2017-01-15T07:56:19.073Z,998.36
2017-01-15T07:57:29.809Z,998.35
2017-01-15T07:58:40.186Z,998.45
2017-01-15T07:59:50.538Z,998.37
2017-01-15T08:01:00.504Z,998.46
2017-01-15T08:02:10.454Z,998.52
2017-01-15T08:03:21.206Z,998.44
2017-01-15T08:04:31.172Z,998.44
2017-01-15T08:05:41.540Z,998.52
2017-01-15T08:06:51.911Z,998.52
2017-01-15T08:08:02.677Z,998.48
2017-01-15T08:09:13.431Z,998.56
2017-01-15T08:10:24.177Z,998.58
2017-01-15T08:11:34.527Z,998.57
2017-01-15T08:12:44.874Z,998.68
2017-01-15T08:13:55.610Z,998.61
2017-01-15T08:15:06.399Z,998.63
2017-01-15T08:16:16.765Z,998.58
2017-01-15T08:17:27.515Z,998.61
2017-01-15T08:18:38.278Z,998.66
2017-01-15T08:19:49.029Z,998.71
2017-01-15T08:20:59.380Z,998.68
2017-01-15T08:22:09.319Z,998.66
2017-01-15T08:23:20.081Z,998.68
2017-01-15T08:24:30.841Z,998.67
2017-01-15T08:25:41.197Z,998.66
2017-01-15T08:26:51.539Z,998.78
2017-01-15T08:28:01.515Z,998.71
2017-01-15T08:29:12.266Z,998.68
2017-01-15T08:30:22.619Z,998.7
2017-01-15T08:31:32.984Z,998.71
2017-01-15T08:32:42.943Z,998.75
2017-01-15T08:33:53.723Z,998.75
2017-01-15T08:35:03.688Z,998.77
2017-01-15T08:36:14.444Z,998.86
2017-01-15T08:37:25.189Z,998.79
2017-01-15T08:38:36.016Z,998.82
2017-01-15T08:39:46.783Z,998.83
2017-01-15T08:40:57.538Z,998.83
2017-01-15T08:42:07.884Z,998.87
2017-01-15T08:43:18.648Z,998.84
2017-01-15T08:44:29.011Z,998.89
2017-01-15T08:45:38.969Z,998.86
2017-01-15T08:46:49.762Z,998.94
2017-01-15T08:47:59.710Z,998.94
2017-01-15T08:49:10.455Z,998.97
2017-01-15T08:50:21.226Z,998.87
2017-01-15T08:51:31.585Z,998.93
2017-01-15T08:52:42.323Z,998.89
2017-01-15T08:53:52.316Z,998.98
2017-01-15T08:55:02.674Z,998.93
2017-01-15T08:56:13.460Z,998.97
2017-01-15T08:57:24.209Z,998.92
2017-01-15T08:58:34.550Z,998.93
2017-01-15T08:59:45.321Z,998.92
2017-01-15T09:00:56.073Z,998.96
2017-01-15T09:02:06.837Z,998.94
2017-01-15T09:03:17.596Z,998.91
2017-01-15T09:04:27.167Z,998.98
2017-01-15T09:05:37.525Z,999.01
2017-01-15T09:06:48.282Z,998.98
2017-01-15T09:07:58.653Z,998.98
2017-01-15T09:09:09.402Z,999.02
2017-01-15T09:10:20.150Z,999.01
2017-01-15T09:11:30.966Z,999.05
2017-01-15T09:12:41.710Z,999.05
2017-01-15T09:13:52.068Z,999.05
2017-01-15T09:15:02.023Z,999.04
2017-01-15T09:16:12.372Z,999.09
2017-01-15T09:17:22.718Z,999.08
2017-01-15T09:18:33.084Z,999.09
2017-01-15T09:19:43.445Z,999.09
2017-01-15T09:20:53.796Z,999.16
2017-01-15T09:22:03.753Z,999.11
2017-01-15T09:23:14.530Z,999.16
2017-01-15T09:24:25.309Z,999.2
2017-01-15T09:25:35.695Z,999.12
2017-01-15T09:26:46.452Z,999.11
2017-01-15T09:27:57.203Z,999.17
2017-01-15T09:29:07.983Z,999.14
2017-01-15T09:30:18.731Z,999.16
2017-01-15T09:31:29.078Z,999.18
2017-01-15T09:32:39.840Z,999.17
2017-01-15T09:33:49.796Z,999.17
2017-01-15T09:35:00.163Z,999.18
2017-01-15T09:36:10.154Z,999.13
2017-01-15T09:37:19.716Z,999.17
2017-01-15T09:38:30.465Z,999.21
2017-01-15T09:39:41.473Z,999.21
2017-01-15T09:40:52.216Z,999.24
2017-01-15T09:42:02.583Z,999.13
2017-01-15T09:43:12.948Z,999.18
2017-01-15T09:44:22.928Z,999.24
2017-01-15T09:45:33.673Z,999.23
2017-01-15T09:46:44.026Z,999.29
2017-01-15T09:47:54.833Z,999.32
2017-01-15T09:49:05.195Z,999.23
2017-01-15T09:50:15.951Z,999.19
2017-01-15T09:51:25.917Z,999.26
2017-01-15T09:52:36.710Z,999.29
2017-01-15T09:53:47.467Z,999.26
2017-01-15T09:54:58.218Z,999.31
2017-01-15T09:56:08.612Z,999.31
2017-01-15T09:57:19.396Z,999.26
2017-01-15T09:58:29.742Z,999.34
2017-01-15T09:59:40.490Z,999.27
2017-01-15T10:00:51.242Z,999.29
2017-01-15T10:02:01.984Z,999.25
2017-01-15T10:03:11.946Z,999.29
2017-01-15T10:04:22.312Z,999.35
2017-01-15T10:05:32.694Z,999.35
2017-01-15T10:06:42.660Z,999.3
2017-01-15T10:07:53.397Z,999.33
2017-01-15T10:09:03.775Z,999.32
2017-01-15T10:10:14.158Z,999.36
2017-01-15T10:11:24.139Z,999.31
2017-01-15T10:12:34.495Z,999.34
2017-01-15T10:13:44.458Z,999.31
2017-01-15T10:14:55.446Z,999.41
2017-01-15T10:16:06.200Z,999.25
2017-01-15T10:17:16.947Z,999.32
2017-01-15T10:18:27.710Z,999.36
2017-01-15T10:19:38.476Z,999.31
2017-01-15T10:20:49.246Z,999.3
2017-01-15T10:22:00.019Z,999.4
2017-01-15T10:23:10.772Z,999.32
2017-01-15T10:24:21.518Z,999.33
2017-01-15T10:25:31.498Z,999.3
2017-01-15T10:26:42.264Z,999.33
2017-01-15T10:27:52.624Z,999.34
2017-01-15T10:29:03.377Z,999.42
2017-01-15T10:30:14.151Z,999.32
2017-01-15T10:31:24.908Z,999.32
2017-01-15T10:32:35.269Z,999.37
2017-01-15T10:33:46.056Z,999.37
2017-01-15T10:34:56.410Z,999.39
2017-01-15T10:36:07.177Z,999.39
2017-01-15T10:37:16.738Z,999.37
2017-01-15T10:38:27.114Z,999.44
2017-01-15T10:39:37.471Z,999.46
2017-01-15T10:40:47.813Z,999.43
2017-01-15T10:41:57.788Z,999.39
2017-01-15T10:43:07.762Z,999.48
2017-01-15T10:44:18.134Z,999.49
2017-01-15T10:45:28.108Z,999.43
2017-01-15T10:46:38.494Z,999.43
2017-01-15T10:47:49.235Z,999.49
2017-01-15T10:48:59.996Z,999.47
2017-01-15T10:50:10.358Z,999.48
2017-01-15T10:51:21.115Z,999.4
2017-01-15T10:52:31.472Z,999.53
2017-01-15T10:53:41.848Z,999.48
2017-01-15T10:54:52.199Z,999.48
2017-01-15T10:56:02.959Z,999.43
2017-01-15T10:57:12.527Z,999.52
2017-01-15T10:58:22.901Z,999.49
2017-01-15T10:59:33.252Z,999.49
2017-01-15T11:00:44.015Z,999.47
2017-01-15T11:01:54.774Z,999.44
2017-01-15T11:03:05.174Z,999.48
2017-01-15T11:04:15.928Z,999.49
2017-01-15T11:05:26.719Z,999.38
2017-01-15T11:06:37.082Z,999.45
2017-01-15T11:07:47.453Z,999.44
2017-01-15T11:08:58.229Z,999.38
2017-01-15T11:10:08.997Z,999.37
2017-01-15T11:11:19.397Z,999.4
2017-01-15T11:12:29.373Z,999.38
2017-01-15T11:13:39.743Z,999.45
2017-01-15T11:14:50.508Z,999.36
2017-01-15T11:16:00.475Z,999.35
2017-01-15T11:17:10.039Z,999.37
2017-01-15T11:18:20.804Z,999.39
2017-01-15T11:19:30.790Z,999.34
2017-01-15T11:20:41.146Z,999.38
2017-01-15T11:21:51.555Z,999.36
2017-01-15T11:23:01.546Z,999.37
2017-01-15T11:24:11.513Z,999.35
2017-01-15T11:25:22.264Z,999.39
2017-01-15T11:26:33.035Z,999.42
2017-01-15T11:27:43.838Z,999.38
2017-01-15T11:28:54.584Z,999.42
2017-01-15T11:30:04.966Z,999.33
2017-01-15T11:31:15.341Z,999.4
2017-01-15T11:32:25.306Z,999.34
2017-01-15T11:33:35.675Z,999.35
2017-01-15T11:34:46.444Z,999.44
2017-01-15T11:35:56.815Z,999.38
2017-01-15T11:37:07.575Z,999.45
2017-01-15T11:38:17.913Z,999.47
2017-01-15T11:39:28.672Z,999.44
2017-01-15T11:40:39.056Z,999.48
2017-01-15T11:41:49.030Z,999.49
2017-01-15T11:42:59.803Z,999.52
2017-01-15T11:44:09.760Z,999.56
2017-01-15T11:45:20.527Z,999.51
2017-01-15T11:46:30.884Z,999.55
2017-01-15T11:47:41.654Z,999.47
2017-01-15T11:48:52.439Z,999.46
2017-01-15T11:50:02.795Z,999.5
2017-01-15T11:51:13.157Z,999.41
2017-01-15T11:52:23.936Z,999.4
2017-01-15T11:53:34.313Z,999.44
2017-01-15T11:54:44.686Z,999.37
2017-01-15T11:55:55.434Z,999.41
2017-01-15T11:57:05.813Z,999.42
2017-01-15T11:58:16.188Z,999.41
2017-01-15T11:59:26.548Z,999.49
2017-01-15T12:00:36.920Z,999.5
2017-01-15T12:01:47.680Z,999.48
2017-01-15T12:02:58.453Z,999.43
2017-01-15T12:04:09.227Z,999.45
2017-01-15T12:05:19.999Z,999.49
2017-01-15T12:06:30.384Z,999.48
2017-01-15T12:07:41.157Z,999.41
2017-01-15T12:08:51.538Z,999.47
2017-01-15T12:10:01.895Z,999.55
2017-01-15T12:11:12.647Z,999.53
2017-01-15T12:12:23.403Z,999.44
2017-01-15T12:13:34.175Z,999.53
2017-01-15T12:14:44.916Z,999.43
2017-01-15T12:15:55.689Z,999.42
2017-01-15T12:17:06.491Z,999.44
2017-01-15T12:18:16.455Z,999.42
2017-01-15T12:19:27.198Z,999.48
2017-01-15T12:20:37.940Z,999.45
2017-01-15T12:21:48.687Z,999.41
2017-01-15T12:22:59.056Z,999.52
2017-01-15T12:24:09.822Z,999.46
2017-01-15T12:25:20.622Z,999.46
2017-01-15T12:26:31.378Z,999.48
2017-01-15T12:27:42.142Z,999.44
2017-01-15T12:28:52.113Z,999.42
2017-01-15T12:30:02.480Z,999.47
2017-01-15T12:31:13.096Z,999.45
2017-01-15T12:32:23.479Z,999.45
2017-01-15T12:33:33.451Z,999.51
2017-01-15T12:34:43.822Z,999.45
2017-01-15T12:35:54.183Z,999.49
2017-01-15T12:37:04.579Z,999.49
2017-01-15T12:38:15.365Z,999.5
2017-01-15T12:39:26.190Z,999.55
2017-01-15T12:40:36.981Z,999.55
2017-01-15T12:41:47.372Z,999.5
2017-01-15T12:42:57.806Z,999.56
2017-01-15T12:44:08.174Z,999.51
2017-01-15T12:45:18.938Z,999.56
2017-01-15T12:46:29.705Z,999.49
2017-01-15T12:47:40.069Z,999.49
2017-01-15T12:48:50.841Z,999.51
2017-01-15T12:50:00.855Z,999.54
2017-01-15T12:51:11.634Z,999.53
2017-01-15T12:52:21.997Z,999.51
2017-01-15T12:53:32.759Z,999.6
2017-01-15T12:54:43.134Z,999.63
2017-01-15T12:55:53.911Z,999.7
2017-01-15T12:57:03.878Z,999.63
2017-01-15T12:58:13.840Z,999.66
2017-01-15T12:59:24.596Z,999.68
2017-01-15T13:00:34.949Z,999.69
2017-01-15T13:01:45.704Z,999.69
2017-01-15T13:02:56.057Z,999.71
2017-01-15T13:04:06.815Z,999.76
2017-01-15T13:05:17.219Z,999.72
2017-01-15T13:06:27.968Z,999.8
2017-01-15T13:07:37.945Z,999.76
2017-01-15T13:08:48.304Z,999.85
2017-01-15T13:09:58.267Z,999.69
2017-01-15T13:11:09.018Z,999.78
2017-01-15T13:12:19.765Z,999.76
2017-01-15T13:13:30.128Z,999.79
2017-01-15T13:14:40.125Z,999.74
2017-01-15T13:15:50.114Z,999.84
2017-01-15T13:16:59.690Z,999.81
2017-01-15T13:18:10.454Z,999.84
2017-01-15T13:19:21.207Z,999.78
2017-01-15T13:20:31.178Z,999.77
2017-01-15T13:21:41.577Z,999.79
2017-01-15T13:22:51.948Z,999.78
2017-01-15T13:24:02.327Z,999.77
2017-01-15T13:25:13.089Z,999.79
2017-01-15T13:26:23.860Z,999.85
2017-01-15T13:27:33.866Z,999.8
2017-01-15T13:28:44.636Z,999.84
2017-01-15T13:29:55.033Z,999.86
2017-01-15T13:31:05.409Z,999.81
2017-01-15T13:32:15.780Z,999.82
2017-01-15T13:33:26.584Z,999.8
2017-01-15T13:34:36.951Z,999.76
2017-01-15T13:35:47.709Z,999.77
2017-01-15T13:36:58.066Z,999.81
2017-01-15T13:38:08.830Z,999.75
2017-01-15T13:39:19.210Z,999.83
2017-01-15T13:40:29.181Z,999.83
2017-01-15T13:41:39.962Z,999.78
2017-01-15T13:42:50.730Z,999.72
2017-01-15T13:44:01.506Z,999.79
2017-01-15T13:45:11.885Z,999.82
2017-01-15T13:46:22.650Z,999.75
2017-01-15T13:47:33.059Z,999.83
2017-01-15T13:48:43.816Z,999.85
2017-01-15T13:49:54.192Z,999.83
2017-01-15T13:51:04.585Z,999.88
2017-01-15T13:52:14.567Z,999.91
2017-01-15T13:53:25.326Z,999.94
2017-01-15T13:54:35.697Z,999.93
2017-01-15T13:55:46.076Z,999.92
2017-01-15T13:56:56.464Z,999.94
2017-01-15T13:58:07.238Z,999.96
2017-01-15T13:59:17.608Z,999.91
2017-01-15T14:00:27.987Z,999.93
2017-01-15T14:01:38.346Z,999.88
2017-01-15T14:02:49.104Z,999.94
2017-01-15T14:03:59.887Z,999.89
2017-01-15T14:05:10.272Z,999.88
2017-01-15T14:06:21.048Z,999.92
2017-01-15T14:07:31.652Z,999.93
2017-01-15T14:08:42.015Z,999.92
2017-01-15T14:09:52.393Z,999.94
2017-01-15T14:11:03.158Z,999.94
2017-01-15T14:12:13.927Z,999.96
2017-01-15T14:13:24.288Z,999.94
2017-01-15T14:14:35.099Z,1000.01
2017-01-15T14:15:45.876Z,999.96
2017-01-15T14:16:56.641Z,999.91
2017-01-15T14:18:07.017Z,999.97
2017-01-15T14:19:17.775Z,999.95
2017-01-15T14:20:28.570Z,999.95
2017-01-15T14:21:39.346Z,1000
2017-01-15T14:22:49.708Z,999.97
2017-01-15T14:23:59.679Z,999.97
2017-01-15T14:25:10.081Z,1000.02
2017-01-15T14:26:20.861Z,1000.02
2017-01-15T14:27:31.192Z,1000.05
2017-01-15T14:28:41.554Z,1000.05
2017-01-15T14:29:52.321Z,1000.03
2017-01-15T14:31:02.698Z,1000.03
2017-01-15T14:32:13.477Z,1000.02
2017-01-15T14:33:24.254Z,1000.08
2017-01-15T14:34:34.639Z,1000.07
2017-01-15T14:35:45.393Z,1000.08
2017-01-15T14:36:55.371Z,1000.06
2017-01-15T14:38:06.196Z,1000.05
2017-01-15T14:39:16.961Z,1000.05
2017-01-15T14:40:27.737Z,1000.09
2017-01-15T14:41:38.115Z,1000.05
2017-01-15T14:42:48.477Z,1000.05
2017-01-15T14:43:59.256Z,1000.05
2017-01-15T14:45:09.634Z,1000.04
2017-01-15T14:46:20.039Z,1000.06
2017-01-15T14:47:30.003Z,1000.12
2017-01-15T14:48:40.762Z,1000.07
2017-01-15T14:49:51.140Z,1000.07
2017-01-15T14:51:01.937Z,1000.12
2017-01-15T14:52:12.686Z,1000.06
2017-01-15T14:53:23.435Z,1000.07
2017-01-15T14:54:34.177Z,1000.15
2017-01-15T14:55:44.539Z,1000.14
2017-01-15T14:56:55.293Z,1000.14
2017-01-15T14:58:06.048Z,1000.19
2017-01-15T14:59:16.811Z,1000.14
2017-01-15T15:00:27.167Z,1000.17
2017-01-15T15:01:37.526Z,1000.21
2017-01-15T15:02:47.907Z,1000.21
2017-01-15T15:03:58.269Z,1000.2
2017-01-15T15:05:09.029Z,1000.18
2017-01-15T15:06:19.400Z,1000.17
2017-01-15T15:07:30.156Z,1000.19
2017-01-15T15:08:40.889Z,1000.17
2017-01-15T15:09:50.461Z,1000.23
2017-01-15T15:11:00.843Z,1000.2